createdAt,value
2023-10-27T04:15:26.712Z,52.20
2023-10-27T04:16:26.765Z,58.10
2023-10-27T04:17:26.751Z,52.70
2023-10-27T04:18:26.713Z,74.20
2023-10-27T04:19:26.692Z,71.90
2023-10-27T04:20:26.671Z,58.00
2023-10-27T04:21:26.630Z,64.40
2023-10-27T04:22:26.674Z,49.90
2023-10-27T04:23:26.612Z,44.00
2023-10-27T04:24:26.615Z,39.60
2023-10-27T04:25:26.618Z,31.60
2023-10-27T04:26:26.596Z,29.90
2023-10-27T04:27:26.580Z,29.60
2023-10-27T04:28:26.581Z,29.00
2023-10-27T04:29:26.535Z,21.30
2023-10-27T04:30:26.526Z,24.20
2023-10-27T04:31:26.543Z,24.20
2023-10-27T04:32:26.565Z,24.00
2023-10-27T04:33:26.678Z,23.30
2023-10-27T04:34:26.525Z,22.40
2023-10-27T04:35:26.456Z,26.00
2023-10-27T04:36:26.614Z,22.90
2023-10-27T04:37:26.455Z,24.30
2023-10-27T04:38:26.425Z,22.70
2023-10-27T04:39:26.409Z,23.30
2023-10-27T04:40:26.409Z,21.60
2023-10-27T04:41:26.393Z,24.60
2023-10-27T04:42:26.371Z,20.40
2023-10-27T04:43:26.413Z,24.70
2023-10-27T04:44:26.439Z,26.00
2023-10-27T04:45:26.350Z,21.00
2023-10-27T04:46:26.361Z,22.60
2023-10-27T04:47:26.360Z,22.60
2023-10-27T04:48:26.308Z,21.60
2023-10-27T04:49:26.307Z,23.20
2023-10-27T04:50:26.280Z,24.30
2023-10-27T04:51:26.258Z,23.10
2023-10-27T04:52:26.285Z,21.80
2023-10-27T04:53:26.223Z,20.00
2023-10-27T04:54:26.227Z,23.90
2023-10-27T04:55:26.262Z,21.10
2023-10-27T04:56:26.187Z,21.80
2023-10-27T04:57:26.176Z,25.60
2023-10-27T04:58:26.192Z,21.80
2023-10-27T04:59:26.142Z,24.40
2023-10-27T05:00:26.260Z,24.90
2023-10-27T05:01:28.496Z,21.50
2023-10-27T05:02:26.108Z,25.00
2023-10-27T05:03:26.134Z,27.50
2023-10-27T05:04:26.131Z,26.40
2023-10-27T05:05:26.093Z,29.20
2023-10-27T05:06:26.048Z,33.80
2023-10-27T05:07:26.081Z,31.10
2023-10-27T05:08:26.026Z,34.40
2023-10-27T05:09:26.026Z,35.00
2023-10-27T05:10:26.030Z,32.90
2023-10-27T05:11:25.988Z,37.90
2023-10-27T05:12:25.972Z,38.30
2023-10-27T05:13:25.984Z,38.90
2023-10-27T05:14:25.948Z,43.70
2023-10-27T05:15:25.938Z,43.50
2023-10-27T05:16:25.965Z,49.10
2023-10-27T05:17:25.925Z,44.00
2023-10-27T05:18:26.011Z,44.30
2023-10-27T05:19:25.949Z,48.50
2023-10-27T05:20:25.862Z,50.30
2023-10-27T05:21:25.852Z,47.00
2023-10-27T05:22:25.868Z,50.90
2023-10-27T05:23:25.838Z,46.70
2023-10-27T05:24:25.817Z,50.70
2023-10-27T05:25:25.837Z,53.90
2023-10-27T05:26:25.782Z,52.10
2023-10-27T05:27:25.779Z,57.00
2023-10-27T05:28:25.793Z,57.00
2023-10-27T05:29:25.754Z,60.00
2023-10-27T05:30:25.735Z,55.40
2023-10-27T05:31:25.771Z,61.00
2023-10-27T05:32:25.736Z,52.40
2023-10-27T05:33:25.705Z,57.00
2023-10-27T05:34:26.379Z,52.30
2023-10-27T05:35:25.674Z,53.40
2023-10-27T05:36:25.656Z,56.50
2023-10-27T05:37:25.719Z,54.20
2023-10-27T05:38:25.643Z,52.10
2023-10-27T05:39:25.621Z,53.50
2023-10-27T05:40:25.608Z,46.90
2023-10-27T05:41:25.620Z,47.20
2023-10-27T05:42:25.590Z,46.20
2023-10-27T05:43:25.648Z,46.10
2023-10-27T05:44:25.557Z,46.60
2023-10-27T05:45:25.554Z,42.70
2023-10-27T05:46:25.567Z,46.30
2023-10-27T05:47:25.557Z,49.40
2023-10-27T05:48:25.554Z,43.10
2023-10-27T05:49:25.545Z,51.70
2023-10-27T05:50:25.478Z,45.70
2023-10-27T05:51:25.475Z,46.40
2023-10-27T05:52:25.491Z,47.40
2023-10-27T05:53:25.443Z,48.10
2023-10-27T05:54:25.424Z,50.10
2023-10-27T05:55:25.436Z,43.30
2023-10-27T05:56:25.411Z,47.00
2023-10-27T05:57:25.404Z,49.40
2023-10-27T05:58:25.408Z,51.30
2023-10-27T05:59:25.361Z,51.80
2023-10-27T06:00:25.348Z,52.20
2023-10-27T06:01:25.361Z,56.60
2023-10-27T06:02:25.329Z,54.90
2023-10-27T06:03:25.371Z,56.30
2023-10-27T06:04:25.323Z,61.00
2023-10-27T06:05:25.282Z,57.30
2023-10-27T06:06:25.283Z,54.80
2023-10-27T06:07:25.271Z,56.20
2023-10-27T06:08:25.251Z,64.20
2023-10-27T06:09:25.232Z,61.80
2023-10-27T06:10:25.279Z,61.00
2023-10-27T06:11:25.221Z,57.20
2023-10-27T06:12:25.186Z,56.70
2023-10-27T06:13:25.237Z,63.30
2023-10-27T06:14:25.166Z,60.00
2023-10-27T06:15:25.194Z,64.80
2023-10-27T06:16:25.163Z,58.70
2023-10-27T06:17:25.123Z,71.40
2023-10-27T06:18:25.112Z,64.10
2023-10-27T06:19:25.194Z,58.00
2023-10-27T06:20:25.163Z,57.90
2023-10-27T06:21:25.084Z,56.50
2023-10-27T06:22:25.106Z,57.40
2023-10-27T06:23:25.053Z,60.90
2023-10-27T06:24:25.042Z,55.30
2023-10-27T06:25:25.075Z,51.70
2023-10-27T06:26:25.007Z,60.00
2023-10-27T06:27:24.996Z,59.00
2023-10-27T06:28:25.039Z,51.00
2023-10-27T06:29:24.985Z,54.90
2023-10-27T06:30:24.965Z,58.10
2023-10-27T06:31:25.043Z,56.20
2023-10-27T06:32:24.981Z,63.10
2023-10-27T06:33:24.935Z,54.70
2023-10-27T06:34:24.968Z,59.10
2023-10-27T06:35:24.892Z,58.70
2023-10-27T06:36:24.881Z,53.30
2023-10-27T06:37:24.934Z,51.10
2023-10-27T06:38:24.869Z,59.10
2023-10-27T06:39:24.851Z,56.50
2023-10-27T06:40:24.869Z,52.60
2023-10-27T06:41:24.820Z,56.50
2023-10-27T06:42:24.799Z,53.80
2023-10-27T06:43:24.831Z,61.70
2023-10-27T06:44:24.774Z,61.50
2023-10-27T06:45:24.768Z,58.00
2023-10-27T06:46:24.784Z,53.20
2023-10-27T06:47:24.785Z,54.30
2023-10-27T06:48:24.856Z,55.50
2023-10-27T06:49:24.742Z,57.30
2023-10-27T06:50:24.695Z,56.00
2023-10-27T06:51:24.728Z,54.60
2023-10-27T06:52:24.700Z,50.50
2023-10-27T06:53:24.685Z,54.90
2023-10-27T06:54:24.650Z,58.90
2023-10-27T06:55:24.688Z,52.90
2023-10-27T06:56:24.622Z,57.30
2023-10-27T06:57:24.619Z,58.30
2023-10-27T06:58:24.605Z,61.50
2023-10-27T06:59:24.677Z,59.00
2023-10-27T07:00:24.570Z,59.50
2023-10-27T07:01:24.586Z,55.40
2023-10-27T07:02:24.677Z,55.60
2023-10-27T07:03:31.339Z,54.00
2023-10-27T07:04:25.710Z,55.90
2023-10-27T07:05:24.612Z,56.60
2023-10-27T07:06:24.500Z,56.00
2023-10-27T07:07:28.597Z,56.30
2023-10-27T07:08:24.483Z,51.10
2023-10-27T07:09:24.465Z,51.80
2023-10-27T07:10:24.504Z,58.40
2023-10-27T07:11:24.453Z,53.40
2023-10-27T07:12:24.437Z,52.90
2023-10-27T07:13:24.476Z,51.60
2023-10-27T07:14:24.404Z,54.20
2023-10-27T07:15:24.413Z,41.30
2023-10-27T07:16:24.435Z,50.50
2023-10-27T07:17:24.374Z,48.80
2023-10-27T07:18:24.354Z,49.00
2023-10-27T07:19:24.421Z,48.60
2023-10-27T07:20:24.401Z,50.90
2023-10-27T07:21:24.332Z,48.70
2023-10-27T07:22:24.321Z,44.80
2023-10-27T07:23:24.283Z,47.10
2023-10-27T07:24:24.279Z,48.70
2023-10-27T07:25:24.297Z,49.80
2023-10-27T07:26:24.266Z,44.40
2023-10-27T07:27:24.366Z,50.60
2023-10-27T07:28:24.255Z,40.20
2023-10-27T07:29:24.213Z,42.80
2023-10-27T07:30:24.208Z,40.80
2023-10-27T07:31:24.292Z,39.90
2023-10-27T07:32:24.179Z,46.00
2023-10-27T07:33:24.193Z,39.10
2023-10-27T07:34:24.177Z,42.80
2023-10-27T07:35:24.149Z,43.30
2023-10-27T07:36:24.124Z,43.90
2023-10-27T07:37:24.226Z,36.30
2023-10-27T07:38:24.104Z,44.80
2023-10-27T07:39:24.083Z,42.40
2023-10-27T07:40:24.144Z,41.80
2023-10-27T07:41:24.056Z,41.20
2023-10-27T07:42:24.060Z,50.30
2023-10-27T07:43:24.053Z,43.10
2023-10-27T07:44:24.024Z,43.00
2023-10-27T07:45:24.016Z,41.20
2023-10-27T07:46:24.054Z,44.80
2023-10-27T07:47:24.008Z,44.70
2023-10-27T07:48:24.015Z,43.30
2023-10-27T07:49:24.023Z,41.80
2023-10-27T07:50:23.966Z,42.10
2023-10-27T07:51:23.930Z,41.20
2023-10-27T07:52:23.959Z,35.60
2023-10-27T07:53:23.913Z,37.90
2023-10-27T07:54:23.921Z,38.20
2023-10-27T07:55:23.962Z,38.80
2023-10-27T07:56:23.873Z,37.70
2023-10-27T07:57:23.856Z,40.10
2023-10-27T07:58:23.864Z,35.60
2023-10-27T07:59:23.843Z,41.60
2023-10-27T08:00:23.889Z,40.70
2023-10-27T08:01:24.039Z,37.80
2023-10-27T08:02:23.793Z,35.00
2023-10-27T08:03:23.970Z,35.90
2023-10-27T08:04:23.792Z,40.10
2023-10-27T08:05:23.755Z,40.10
2023-10-27T08:06:23.753Z,38.50
2023-10-27T08:07:23.755Z,41.60
2023-10-27T08:08:23.765Z,38.00
2023-10-27T08:09:23.770Z,42.70
2023-10-27T08:10:23.752Z,39.00
2023-10-27T08:11:23.707Z,43.00
2023-10-27T08:12:23.739Z,48.50
2023-10-27T08:13:23.706Z,40.70
2023-10-27T08:14:23.642Z,38.70
2023-10-27T08:15:23.629Z,40.60
2023-10-27T08:16:23.653Z,38.10
2023-10-27T08:17:23.614Z,36.20
2023-10-27T08:18:23.637Z,37.90
2023-10-27T08:19:23.699Z,41.00
2023-10-27T08:20:23.573Z,41.10
2023-10-27T08:21:23.541Z,37.70
2023-10-27T08:22:23.602Z,34.70
2023-10-27T08:23:23.519Z,49.50
2023-10-27T08:24:23.513Z,40.10
2023-10-27T08:25:23.585Z,39.20
2023-10-27T08:26:23.498Z,35.70
2023-10-27T08:27:23.565Z,38.40
2023-10-27T08:28:23.516Z,39.60
2023-10-27T08:29:23.436Z,38.30
2023-10-27T08:30:23.439Z,36.40
2023-10-27T08:31:23.455Z,35.00
2023-10-27T08:32:23.430Z,37.20
2023-10-27T08:33:23.421Z,38.50
2023-10-27T08:34:23.508Z,37.10
2023-10-27T08:35:23.371Z,33.60
2023-10-27T08:36:24.947Z,33.50
2023-10-27T08:37:23.370Z,30.10
2023-10-27T08:38:23.331Z,33.30
2023-10-27T08:39:23.311Z,38.30
2023-10-27T08:40:23.383Z,36.00
2023-10-27T08:41:23.324Z,33.30
2023-10-27T08:42:23.319Z,35.60
2023-10-27T08:43:23.274Z,32.30
2023-10-27T08:44:25.821Z,38.40
2023-10-27T08:45:23.253Z,32.30
2023-10-27T08:46:23.284Z,31.50
2023-10-27T08:47:23.260Z,33.80
2023-10-27T08:48:23.251Z,39.10
2023-10-27T08:49:23.226Z,33.00
2023-10-27T08:50:23.180Z,32.60
2023-10-27T08:51:23.153Z,35.30
2023-10-27T08:52:23.183Z,37.60
2023-10-27T08:53:23.128Z,33.10
2023-10-27T08:54:23.112Z,32.70
2023-10-27T08:55:23.201Z,33.10
2023-10-27T08:56:23.092Z,34.80
2023-10-27T08:57:23.071Z,31.80
2023-10-27T08:58:23.074Z,35.50
2023-10-27T08:59:23.077Z,28.70
2023-10-27T09:00:23.044Z,30.90
2023-10-27T09:01:23.041Z,33.80
2023-10-27T09:02:23.012Z,34.60
2023-10-27T09:03:22.998Z,33.30
2023-10-27T09:04:23.039Z,30.00
2023-10-27T09:05:23.023Z,36.20
2023-10-27T09:06:22.957Z,30.90
2023-10-27T09:07:22.976Z,35.80
2023-10-27T09:08:22.952Z,36.80
2023-10-27T09:09:22.927Z,31.00
2023-10-27T09:10:22.917Z,33.80
2023-10-27T09:11:22.883Z,32.50
2023-10-27T09:12:22.874Z,35.60
2023-10-27T09:13:22.956Z,31.10
2023-10-27T09:14:22.885Z,32.20
2023-10-27T09:15:22.836Z,33.40
2023-10-27T09:16:22.835Z,35.20
2023-10-27T09:17:22.803Z,31.30
2023-10-27T09:18:22.879Z,30.10
2023-10-27T09:19:22.820Z,31.50
2023-10-27T09:20:22.764Z,32.90
2023-10-27T09:21:22.752Z,31.90
2023-10-27T09:22:29.058Z,30.50
2023-10-27T09:23:23.758Z,31.00
2023-10-27T09:24:22.709Z,33.10
2023-10-27T09:25:22.743Z,30.90
2023-10-27T09:26:22.701Z,33.60
2023-10-27T09:27:22.695Z,30.30
2023-10-27T09:28:22.710Z,32.80
2023-10-27T09:29:22.649Z,32.00
2023-10-27T09:30:22.627Z,30.70
2023-10-27T09:31:22.647Z,32.30
2023-10-27T09:32:22.688Z,28.40
2023-10-27T09:33:22.659Z,30.60
2023-10-27T09:34:22.733Z,29.50
2023-10-27T09:35:22.577Z,33.60
2023-10-27T09:36:24.894Z,28.80
2023-10-27T09:37:22.570Z,29.50
2023-10-27T09:38:22.529Z,33.50
2023-10-27T09:39:22.514Z,29.50
2023-10-27T09:40:22.553Z,31.50
2023-10-27T09:41:22.492Z,26.80
2023-10-27T09:42:22.493Z,27.80
2023-10-27T09:43:22.483Z,35.70
2023-10-27T09:44:22.446Z,37.40
2023-10-27T09:45:22.439Z,32.00
2023-10-27T09:46:22.490Z,30.20
2023-10-27T09:47:22.429Z,33.40
2023-10-27T09:48:22.470Z,31.10
2023-10-27T09:49:22.577Z,29.70
2023-10-27T09:50:22.373Z,33.80
2023-10-27T09:51:22.364Z,31.30
2023-10-27T09:52:22.366Z,31.10
2023-10-27T09:53:22.326Z,30.50
2023-10-27T09:54:22.320Z,32.60
2023-10-27T09:55:22.370Z,29.50
2023-10-27T09:56:22.304Z,30.40
2023-10-27T09:57:22.325Z,27.80
2023-10-27T09:58:22.260Z,31.90
2023-10-27T09:59:22.253Z,28.80
2023-10-27T10:00:22.268Z,29.40
2023-10-27T10:01:22.300Z,29.10
2023-10-27T10:02:22.207Z,29.10
2023-10-27T10:03:22.296Z,25.90
2023-10-27T10:04:22.225Z,27.70
2023-10-27T10:05:22.340Z,25.90
2023-10-27T10:06:22.161Z,30.70
2023-10-27T10:07:22.222Z,29.60
2023-10-27T10:08:22.132Z,30.80
2023-10-27T10:09:22.130Z,30.70
2023-10-27T10:10:22.154Z,29.10
2023-10-27T10:11:22.097Z,29.80
2023-10-27T10:12:22.081Z,30.70
2023-10-27T10:13:22.103Z,33.00
2023-10-27T10:14:22.068Z,30.80
2023-10-27T10:15:22.057Z,32.40
2023-10-27T10:16:22.038Z,33.20
2023-10-27T10:17:22.015Z,29.60
2023-10-27T10:18:22.003Z,28.40
2023-10-27T10:19:22.031Z,29.10
2023-10-27T10:20:21.978Z,29.00
2023-10-27T10:21:21.959Z,26.70
2023-10-27T10:22:22.011Z,25.60
2023-10-27T10:23:21.936Z,28.40
2023-10-27T10:24:21.940Z,28.70
2023-10-27T10:25:21.951Z,27.80
2023-10-27T10:26:21.898Z,24.60
2023-10-27T10:27:21.904Z,25.20
2023-10-27T10:28:28.998Z,25.20
2023-10-27T10:29:21.880Z,26.30
2023-10-27T10:30:21.883Z,24.90
2023-10-27T10:31:21.832Z,26.10
2023-10-27T10:32:21.826Z,28.40
2023-10-27T10:33:21.854Z,26.20
2023-10-27T10:34:21.825Z,26.10
2023-10-27T10:35:21.841Z,22.60
2023-10-27T10:36:21.780Z,24.80
2023-10-27T10:37:24.283Z,23.40
2023-10-27T10:38:21.768Z,21.60
2023-10-27T10:39:21.726Z,26.30
2023-10-27T10:40:21.843Z,22.60
2023-10-27T10:41:21.743Z,21.20
2023-10-27T10:42:21.687Z,22.80
2023-10-27T10:43:21.921Z,22.70
2023-10-27T10:44:21.676Z,21.50
2023-10-27T10:45:21.708Z,23.50
2023-10-27T10:46:21.671Z,23.10
2023-10-27T10:47:21.629Z,23.70
2023-10-27T10:48:21.721Z,23.80
2023-10-27T10:49:21.661Z,20.90
2023-10-27T10:50:21.594Z,25.80
2023-10-27T10:51:21.605Z,22.60
2023-10-27T10:52:21.585Z,24.00
2023-10-27T10:53:21.550Z,21.50
2023-10-27T10:54:21.543Z,21.40
2023-10-27T10:55:21.578Z,21.10
2023-10-27T10:56:21.532Z,23.10
2023-10-27T10:57:21.506Z,20.30
2023-10-27T10:58:21.522Z,19.40
2023-10-27T10:59:21.484Z,18.30
2023-10-27T11:00:21.464Z,21.80
2023-10-27T11:01:21.465Z,20.40
2023-10-27T11:02:21.465Z,20.20
2023-10-27T11:03:21.419Z,16.90
2023-10-27T11:04:27.104Z,15.60
2023-10-27T11:05:22.605Z,15.50
2023-10-27T11:06:21.506Z,19.30
2023-10-27T11:07:21.409Z,16.10
2023-10-27T11:08:21.359Z,17.90
2023-10-27T11:09:21.345Z,19.30
2023-10-27T11:10:22.786Z,18.60
2023-10-27T11:11:21.775Z,18.70
2023-10-27T11:12:21.321Z,18.10
2023-10-27T11:13:21.322Z,17.80
2023-10-27T11:14:21.291Z,18.90
2023-10-27T11:15:21.258Z,18.00
2023-10-27T11:16:21.288Z,21.50
2023-10-27T11:17:21.243Z,18.70
2023-10-27T11:18:21.438Z,21.10
2023-10-27T11:19:21.264Z,20.90
2023-10-27T11:20:21.201Z,17.50
2023-10-27T11:21:21.205Z,17.10
2023-10-27T11:22:21.244Z,21.40
2023-10-27T11:23:21.176Z,18.70
2023-10-27T11:24:21.162Z,25.30
2023-10-27T11:25:21.178Z,20.90
2023-10-27T11:26:21.141Z,19.00
2023-10-27T11:27:21.861Z,22.00
2023-10-27T11:28:21.122Z,21.90
2023-10-27T11:29:21.103Z,20.70
2023-10-27T11:30:21.098Z,19.20
2023-10-27T11:31:21.065Z,19.30
2023-10-27T11:32:21.049Z,15.90
2023-10-27T11:33:21.037Z,17.60
2023-10-27T11:34:21.062Z,17.70
2023-10-27T11:35:21.010Z,16.00
2023-10-27T11:36:20.997Z,13.50
2023-10-27T11:37:21.142Z,15.00
2023-10-27T11:38:21.012Z,16.30
2023-10-27T11:39:20.966Z,15.50
2023-10-27T11:40:20.977Z,15.20
2023-10-27T11:41:20.930Z,13.10
2023-10-27T11:42:20.913Z,13.70
2023-10-27T11:43:20.939Z,14.60
2023-10-27T11:44:20.924Z,13.30
2023-10-27T11:45:20.889Z,12.20
2023-10-27T11:46:20.926Z,14.10
2023-10-27T11:47:20.846Z,13.70
2023-10-27T11:48:20.906Z,12.50
2023-10-27T11:49:20.880Z,13.00
2023-10-27T11:50:20.956Z,12.90
2023-10-27T11:51:20.796Z,11.70
2023-10-27T11:52:21.031Z,12.50
2023-10-27T11:53:20.776Z,13.50
2023-10-27T11:54:20.792Z,11.50
2023-10-27T11:55:20.759Z,13.70
2023-10-27T11:56:20.751Z,14.40
2023-10-27T11:57:20.717Z,12.50
2023-10-27T11:58:20.746Z,12.80
2023-10-27T11:59:20.716Z,12.80
2023-10-27T12:00:20.692Z,23.60
2023-10-27T12:01:20.750Z,20.50
2023-10-27T12:02:20.660Z,15.30
2023-10-27T12:03:20.710Z,20.00
2023-10-27T12:04:20.699Z,12.50
2023-10-27T12:05:20.677Z,13.50
2023-10-27T12:06:20.609Z,17.40
2023-10-27T12:07:20.611Z,14.90
2023-10-27T12:08:20.590Z,13.70
2023-10-27T12:09:20.571Z,12.40
2023-10-27T12:10:20.572Z,13.50
2023-10-27T12:11:20.544Z,13.40
2023-10-27T12:12:20.552Z,14.30
2023-10-27T12:13:20.535Z,14.50
2023-10-27T12:14:20.553Z,11.10
2023-10-27T12:15:22.580Z,12.70
2023-10-27T12:16:20.494Z,10.30
2023-10-27T12:17:20.494Z,15.80
2023-10-27T12:18:20.451Z,16.10
2023-10-27T12:19:20.493Z,13.00
2023-10-27T12:20:20.489Z,12.80
2023-10-27T12:21:20.405Z,14.00
2023-10-27T12:22:20.422Z,17.30
2023-10-27T12:23:20.381Z,14.90
2023-10-27T12:24:20.399Z,16.30
2023-10-27T12:25:20.414Z,14.60
2023-10-27T12:26:20.348Z,17.50
2023-10-27T12:27:21.183Z,16.20
2023-10-27T12:28:20.370Z,15.00
2023-10-27T12:29:20.313Z,12.00
2023-10-27T12:30:20.292Z,13.30
2023-10-27T12:31:20.298Z,12.80
2023-10-27T12:32:20.363Z,11.70
2023-10-27T12:33:20.251Z,10.90
2023-10-27T12:34:20.328Z,12.80
2023-10-27T12:35:20.225Z,11.90
2023-10-27T12:36:20.270Z,12.10
2023-10-27T12:37:20.324Z,12.90
2023-10-27T12:38:20.203Z,14.50
2023-10-27T12:39:20.177Z,12.90
2023-10-27T12:40:20.215Z,14.00
2023-10-27T12:41:20.172Z,14.60
2023-10-27T12:42:20.143Z,19.80
2023-10-27T12:43:20.138Z,15.90
2023-10-27T12:44:20.856Z,15.40
2023-10-27T12:45:20.117Z,18.80
2023-10-27T12:46:20.133Z,16.20
2023-10-27T12:47:20.068Z,19.40
2023-10-27T12:48:20.082Z,16.10
2023-10-27T12:49:20.120Z,13.00
2023-10-27T12:50:20.396Z,11.80
2023-10-27T12:51:20.038Z,15.50
2023-10-27T12:52:20.033Z,12.50
2023-10-27T12:53:19.988Z,16.30
2023-10-27T12:54:20.883Z,14.40
2023-10-27T12:55:20.025Z,17.00
2023-10-27T12:56:19.961Z,17.20
2023-10-27T12:57:19.941Z,17.40
2023-10-27T12:58:20.014Z,14.80
2023-10-27T12:59:19.942Z,20.40
2023-10-27T13:00:19.932Z,20.00
2023-10-27T13:01:19.915Z,17.70
2023-10-27T13:02:19.883Z,17.80
2023-10-27T13:03:19.981Z,16.00
2023-10-27T13:04:19.879Z,17.30
2023-10-27T13:05:19.858Z,19.50
2023-10-27T13:06:19.833Z,23.10
2023-10-27T13:07:19.841Z,23.60
2023-10-27T13:08:19.797Z,18.70
2023-10-27T13:09:19.794Z,15.30
2023-10-27T13:10:19.807Z,13.40
2023-10-27T13:11:19.810Z,14.60
2023-10-27T13:12:19.770Z,16.50
2023-10-27T13:13:19.755Z,19.90
2023-10-27T13:14:19.736Z,15.10
2023-10-27T13:15:19.725Z,15.90
2023-10-27T13:16:19.726Z,16.60
2023-10-27T13:17:19.694Z,13.80
2023-10-27T13:18:19.788Z,10.80
2023-10-27T13:19:19.667Z,13.70
2023-10-27T13:20:19.644Z,14.90
2023-10-27T13:21:19.624Z,15.20
2023-10-27T13:22:19.642Z,16.90
2023-10-27T13:23:19.605Z,19.10
2023-10-27T13:24:19.647Z,15.50
2023-10-27T13:25:19.618Z,14.70
2023-10-27T13:26:19.855Z,14.80
2023-10-27T13:27:19.539Z,17.00
2023-10-27T13:28:19.580Z,30.80
2023-10-27T13:29:19.528Z,20.40
2023-10-27T13:30:19.508Z,20.10
2023-10-27T13:31:19.496Z,20.70
2023-10-27T13:32:19.484Z,21.90
2023-10-27T13:33:19.576Z,17.90
2023-10-27T13:34:19.493Z,15.40
2023-10-27T13:35:19.446Z,20.60
2023-10-27T13:36:19.433Z,16.80
2023-10-27T13:37:19.461Z,20.40
2023-10-27T13:38:19.419Z,18.90
2023-10-27T13:39:19.394Z,13.90
2023-10-27T13:40:19.556Z,14.50
2023-10-27T13:41:19.385Z,16.40
2023-10-27T13:42:19.386Z,22.30
2023-10-27T13:43:19.409Z,17.80
2023-10-27T13:44:19.329Z,22.10
2023-10-27T13:45:19.306Z,22.20
2023-10-27T13:46:19.325Z,19.00
2023-10-27T13:47:19.304Z,19.30
2023-10-27T13:48:19.363Z,23.80
2023-10-27T13:49:19.269Z,26.20
2023-10-27T13:50:19.252Z,20.50
2023-10-27T13:51:19.252Z,25.50
2023-10-27T13:52:19.261Z,24.20
2023-10-27T13:53:19.202Z,26.30
2023-10-27T13:54:19.211Z,25.50
2023-10-27T13:55:19.237Z,18.60
2023-10-27T13:56:21.019Z,14.90
2023-10-27T13:57:19.149Z,14.90
2023-10-27T13:58:19.160Z,15.20
2023-10-27T13:59:19.129Z,15.80
2023-10-27T14:00:19.220Z,15.50
2023-10-27T14:01:19.136Z,14.20
2023-10-27T14:02:19.099Z,19.10
2023-10-27T14:03:19.198Z,12.90
2023-10-27T14:04:19.204Z,14.60
2023-10-27T14:05:19.198Z,16.30
2023-10-27T14:06:19.049Z,15.90
2023-10-27T14:07:19.052Z,20.00
2023-10-27T14:08:19.021Z,17.90
2023-10-27T14:09:18.996Z,20.40
2023-10-27T14:10:19.074Z,18.30
2023-10-27T14:11:19.041Z,15.10
2023-10-27T14:12:18.966Z,17.20
2023-10-27T14:13:19.007Z,15.90
2023-10-27T14:14:18.942Z,15.40
2023-10-27T14:15:18.931Z,14.80
2023-10-27T14:16:18.953Z,12.30
2023-10-27T14:17:18.891Z,13.80
2023-10-27T14:18:18.994Z,15.10
2023-10-27T14:19:18.915Z,108.10
2023-10-27T14:20:18.889Z,24.90
2023-10-27T14:21:18.842Z,20.30
2023-10-27T14:22:18.839Z,22.00
2023-10-27T14:23:18.812Z,16.30
2023-10-27T14:24:18.820Z,25.80
2023-10-27T14:25:18.820Z,17.80
2023-10-27T14:26:18.792Z,14.00
2023-10-27T14:27:18.778Z,12.90
2023-10-27T14:28:18.814Z,12.50
2023-10-27T14:29:18.749Z,17.60
2023-10-27T14:30:18.779Z,9.30
2023-10-27T14:31:18.758Z,11.20
2023-10-27T14:32:18.707Z,9.90
2023-10-27T14:33:18.724Z,13.00
2023-10-27T14:34:18.730Z,49.40
2023-10-27T14:35:18.664Z,26.70
2023-10-27T14:36:21.188Z,18.20
2023-10-27T14:37:18.757Z,20.80
2023-10-27T14:38:18.631Z,9.40
2023-10-27T14:39:18.620Z,13.50
2023-10-27T14:40:18.613Z,11.30
2023-10-27T14:41:18.580Z,17.10
2023-10-27T14:42:18.572Z,11.50
2023-10-27T14:43:18.616Z,11.80
2023-10-27T14:44:18.566Z,8.60
2023-10-27T14:45:18.544Z,23.70
2023-10-27T14:46:18.557Z,9.00
2023-10-27T14:47:22.907Z,8.60
2023-10-27T14:48:19.635Z,9.70
2023-10-27T14:49:18.555Z,10.10
2023-10-27T14:50:18.487Z,13.80
2023-10-27T14:51:18.448Z,15.50
2023-10-27T14:52:18.478Z,9.50
2023-10-27T14:53:18.442Z,44.60
2023-10-27T14:54:18.418Z,106.10
2023-10-27T14:55:18.460Z,58.10
2023-10-27T14:56:18.396Z,19.50
2023-10-27T14:57:18.379Z,23.80
2023-10-27T14:58:18.402Z,14.50
2023-10-27T14:59:18.345Z,19.50
2023-10-27T15:00:18.341Z,14.40
2023-10-27T15:01:18.333Z,16.30
2023-10-27T15:02:18.321Z,15.10
2023-10-27T15:03:18.319Z,12.40
2023-10-27T15:04:18.314Z,13.90
2023-10-27T15:05:18.294Z,22.90
2023-10-27T15:06:18.283Z,27.40
2023-10-27T15:07:18.336Z,44.40
2023-10-27T15:08:18.307Z,15.20
2023-10-27T15:09:18.261Z,43.40
2023-10-27T15:10:18.229Z,19.00
2023-10-27T15:11:18.250Z,26.80
2023-10-27T15:12:18.206Z,22.60
2023-10-27T15:13:18.189Z,22.30
2023-10-27T15:14:18.158Z,25.40
2023-10-27T15:15:18.190Z,23.40
2023-10-27T15:16:18.350Z,33.00
2023-10-27T15:17:18.110Z,20.90
2023-10-27T15:18:18.107Z,42.50
2023-10-27T15:19:18.133Z,55.30
2023-10-27T15:20:18.169Z,47.10
2023-10-27T15:21:18.070Z,32.30
2023-10-27T15:22:18.084Z,37.70
2023-10-27T15:23:18.048Z,39.20
2023-10-27T15:24:18.026Z,34.70
2023-10-27T15:25:18.086Z,44.80
2023-10-27T15:26:18.023Z,59.70
2023-10-27T15:27:17.977Z,50.10
2023-10-27T15:28:18.025Z,42.50
2023-10-27T15:29:17.964Z,39.30
2023-10-27T15:30:17.993Z,40.00
2023-10-27T15:31:17.930Z,50.00
2023-10-27T15:32:17.926Z,44.60
2023-10-27T15:33:17.918Z,45.80
2023-10-27T15:34:17.937Z,47.20
2023-10-27T15:35:17.892Z,42.30
2023-10-27T15:36:17.867Z,40.90
2023-10-27T15:37:17.881Z,45.90
2023-10-27T15:38:17.852Z,53.50
2023-10-27T15:39:17.841Z,40.70
2023-10-27T15:40:17.876Z,44.60
2023-10-27T15:41:17.795Z,42.40
2023-10-27T15:42:17.792Z,52.00
2023-10-27T15:43:17.849Z,56.10
2023-10-27T15:44:17.786Z,44.40
2023-10-27T15:45:17.747Z,54.50
2023-10-27T15:46:17.766Z,43.90
2023-10-27T15:47:17.729Z,43.00
2023-10-27T15:48:17.800Z,42.10
2023-10-27T15:49:17.785Z,55.40
2023-10-27T15:50:17.693Z,49.30
2023-10-27T15:51:17.686Z,48.60
2023-10-27T15:52:17.710Z,52.50
2023-10-27T15:53:17.653Z,54.50
2023-10-27T15:54:17.647Z,51.90
2023-10-27T15:55:17.662Z,58.50
2023-10-27T15:56:17.615Z,62.30
2023-10-27T15:57:17.621Z,77.80
2023-10-27T15:58:17.623Z,101.50
2023-10-27T15:59:17.632Z,50.10
2023-10-27T16:00:17.594Z,308.20
2023-10-27T16:01:17.658Z,596.90
2023-10-27T16:02:17.529Z,55.70
2023-10-27T16:03:17.591Z,346.80
2023-10-27T16:04:17.632Z,78.20
2023-10-27T16:05:17.530Z,75.50
2023-10-27T16:06:17.483Z,77.80
2023-10-27T16:07:17.477Z,87.50
2023-10-27T16:08:17.484Z,102.50
2023-10-27T16:09:35.318Z,88.60
2023-10-27T16:10:18.449Z,81.30
2023-10-27T16:11:17.436Z,80.60
2023-10-27T16:12:17.403Z,69.10
2023-10-27T16:13:17.518Z,77.30
2023-10-27T16:14:17.388Z,59.00
2023-10-27T16:15:17.372Z,74.40
2023-10-27T16:16:17.361Z,89.40
2023-10-27T16:17:17.377Z,122.80
2023-10-27T16:18:17.442Z,85.70
2023-10-27T16:19:17.432Z,78.90
2023-10-27T16:20:17.324Z,101.50
2023-10-27T16:21:17.333Z,96.60
2023-10-27T16:22:17.287Z,69.00
2023-10-27T16:23:17.261Z,79.80
2023-10-27T16:24:17.260Z,73.30
2023-10-27T16:25:17.255Z,73.10
2023-10-27T16:26:17.877Z,75.20
2023-10-27T16:27:17.235Z,77.80
2023-10-27T16:28:17.250Z,88.40
2023-10-27T16:29:17.211Z,90.90
2023-10-27T16:30:17.168Z,80.30
2023-10-27T16:31:17.158Z,102.00
2023-10-27T16:32:17.165Z,79.20
2023-10-27T16:33:17.154Z,78.70
2023-10-27T16:34:17.140Z,141.00
2023-10-27T16:35:17.107Z,84.80
2023-10-27T16:36:17.112Z,126.80
2023-10-27T16:37:17.099Z,100.90
2023-10-27T16:38:17.064Z,107.70
2023-10-27T16:39:17.069Z,138.60
2023-10-27T16:40:17.064Z,150.60
2023-10-27T16:41:17.053Z,114.80
2023-10-27T16:42:17.025Z,130.60
2023-10-27T16:43:17.007Z,132.50
2023-10-27T16:44:16.995Z,117.60
2023-10-27T16:45:16.976Z,110.30
2023-10-27T16:46:17.006Z,93.40
2023-10-27T16:47:16.961Z,101.00
2023-10-27T16:48:16.952Z,93.00
2023-10-27T16:49:16.935Z,65.10
2023-10-27T16:50:16.924Z,95.70
2023-10-27T16:51:16.913Z,88.50
2023-10-27T16:52:16.885Z,61.60
2023-10-27T16:53:16.875Z,99.30
2023-10-27T16:54:16.860Z,96.50
2023-10-27T16:55:16.864Z,180.00
2023-10-27T16:56:16.830Z,104.90
2023-10-27T16:57:16.832Z,194.10
2023-10-27T16:58:16.814Z,94.30
2023-10-27T16:59:16.804Z,92.50
2023-10-27T17:00:16.797Z,91.30
2023-10-27T17:01:16.781Z,107.20
2023-10-27T17:02:16.925Z,99.90
2023-10-27T17:03:16.803Z,88.40
2023-10-27T17:04:16.753Z,99.20
2023-10-27T17:05:16.935Z,109.20
2023-10-27T17:06:16.700Z,75.30
2023-10-27T17:07:16.698Z,80.50